Time;durP1;ratioP1;P1;durP2;ratioP2;P2;SDS_P1;SDS_P2;PMS_P1;PMS_P2;Temp;Humidity;BMP_temperature;BMP_pressure;BME280_temperature;BME280_humidity;BME280_pressure;Samples;Min_cycle;Max_cycle;Signal;HPM_P1;HPM_P2
2022/09/30 00:01:16;;;;;;;0.20;0.20;;;9.40;99.90;;;;;;5066417;28;20629;-78
2022/09/30 00:03:42;;;;;;;0.20;0.20;;;9.40;99.90;;;;;;5061163;28;20183;-78
2022/09/30 00:06:08;;;;;;;0.20;0.20;;;9.40;99.90;;;;;;5061502;28;20218;-79
2022/09/30 00:08:35;;;;;;;0.20;0.20;;;9.40;99.90;;;;;;5051146;28;20792;-79
2022/09/30 00:11:06;;;;;;;0.20;0.20;;;9.40;99.90;;;;;;5052667;28;20552;-78
2022/09/30 00:13:36;;;;;;;0.20;0.20;;;9.40;99.90;;;;;;5062620;28;20503;-78
2022/09/30 00:16:02;;;;;;;0.20;0.20;;;9.40;99.90;;;;;;5062643;28;20503;-78
2022/09/30 00:18:28;;;;;;;0.20;0.20;;;9.30;99.90;;;;;;5061750;28;20440;-78
2022/09/30 00:20:54;;;;;;;0.20;0.20;;;9.30;99.90;;;;;;5053587;28;20476;-78
2022/09/30 00:23:21;;;;;;;0.20;0.20;;;9.30;99.90;;;;;;5076667;28;20213;-78
2022/09/30 00:25:47;;;;;;;0.20;0.20;;;9.30;99.90;;;;;;5049920;28;20178;-79
2022/09/30 00:28:14;;;;;;;0.20;0.20;;;9.30;99.90;;;;;;5059271;28;20428;-78
2022/09/30 00:30:40;;;;;;;0.20;0.20;;;9.30;99.90;;;;;;5064910;28;20539;-79
2022/09/30 00:33:05;;;;;;;0.20;0.20;;;9.30;99.90;;;;;;5063916;28;20554;-79
2022/09/30 00:35:31;;;;;;;0.20;0.20;;;9.30;99.90;;;;;;5065571;28;20182;-79
2022/09/30 00:37:58;;;;;;;0.20;0.20;;;9.30;99.90;;;;;;5063057;28;20239;-79
2022/09/30 00:40:25;;;;;;;0.20;0.20;;;9.30;99.90;;;;;;5064782;28;20206;-79
2022/09/30 00:42:50;;;;;;;0.20;0.20;;;9.30;99.90;;;;;;5069663;28;20480;-78
2022/09/30 00:45:19;;;;;;;0.20;0.20;;;9.30;99.90;;;;;;5061548;28;21083;-78
2022/09/30 00:47:55;;;;;;;0.20;0.20;;;9.30;99.90;;;;;;5066903;28;20193;-78
2022/09/30 00:50:29;;;;;;;0.20;0.20;;;9.30;99.90;;;;;;5062978;28;20517;-79
2022/09/30 00:53:00;;;;;;;0.20;0.20;;;9.30;99.90;;;;;;5061125;28;20443;-79
2022/09/30 00:55:32;;;;;;;0.20;0.20;;;9.30;99.90;;;;;;5057419;28;20447;-79
2022/09/30 00:58:00;;;;;;;0.10;0.10;;;9.30;99.90;;;;;;5069241;28;20436;-78
2022/09/30 01:00:26;;;;;;;0.20;0.20;;;9.30;99.90;;;;;;5061077;28;20562;-79
2022/09/30 01:02:52;;;;;;;0.20;0.20;;;9.30;99.90;;;;;;5064699;28;21032;-78
2022/09/30 01:05:18;;;;;;;0.20;0.20;;;9.30;99.90;;;;;;5063479;28;20204;-79
2022/09/30 01:07:45;;;;;;;0.20;0.20;;;9.30;99.90;;;;;;5057929;28;20441;-78
2022/09/30 01:10:11;;;;;;;0.20;0.20;;;9.20;99.90;;;;;;5063807;28;20442;-79
2022/09/30 01:12:38;;;;;;;0.20;0.20;;;9.20;99.90;;;;;;5066374;28;20444;-79
2022/09/30 01:15:04;;;;;;;0.20;0.20;;;9.30;99.90;;;;;;5080109;28;20599;-79
2022/09/30 01:17:47;;;;;;;0.20;0.20;;;9.30;99.90;;;;;;5084054;28;20458;-79
2022/09/30 01:20:37;;;;;;;0.20;0.20;;;9.20;99.90;;;;;;5060694;28;21027;-79
2022/09/30 01:23:11;;;;;;;0.20;0.20;;;9.20;99.90;;;;;;5071211;28;20450;-78
2022/09/30 01:25:52;;;;;;;0.20;0.20;;;9.20;99.90;;;;;;5086406;28;20445;-79
2022/09/30 01:29:05;;;;;;;0.20;0.20;;;9.30;99.90;;;;;;5055091;28;20444;-79
2022/09/30 01:31:48;;;;;;;0.20;0.20;;;9.20;99.90;;;;;;5008678;28;20461;-78
2022/09/30 01:34:36;;;;;;;0.20;0.20;;;9.20;99.90;;;;;;5070025;28;20439;-79
2022/09/30 01:37:14;;;;;;;0.20;0.20;;;9.20;99.90;;;;;;5071434;28;20472;-79
2022/09/30 01:40:01;;;;;;;0.20;0.20;;;9.20;99.90;;;;;;5076611;28;20435;-79
2022/09/30 01:42:39;;;;;;;0.20;0.20;;;9.20;99.90;;;;;;5059354;28;20577;-79
2022/09/30 01:45:12;;;;;;;0.30;0.30;;;9.20;99.90;;;;;;5071596;28;20962;-79
2022/09/30 01:48:20;;;;;;;0.20;0.20;;;9.20;99.90;;;;;;5064353;28;20579;-79
2022/09/30 01:50:52;;;;;;;0.20;0.20;;;9.20;99.90;;;;;;5015731;28;20447;-77
2022/09/30 01:53:34;;;;;;;0.20;0.20;;;9.20;99.90;;;;;;5090695;28;20482;-78
2022/09/30 01:56:09;;;;;;;0.20;0.20;;;9.20;99.90;;;;;;5090185;28;20513;-79
2022/09/30 01:58:38;;;;;;;0.20;0.20;;;9.20;99.90;;;;;;5089403;28;20447;-79
2022/09/30 02:01:10;;;;;;;0.20;0.20;;;9.20;99.90;;;;;;5077030;28;20488;-79
2022/09/30 02:03:44;;;;;;;0.20;0.20;;;9.20;99.90;;;;;;5062151;28;20441;-79
2022/09/30 02:06:17;;;;;;;0.20;0.20;;;9.20;99.90;;;;;;5079207;28;20446;-78
2022/09/30 02:08:56;;;;;;;0.20;0.20;;;9.20;99.90;;;;;;5088744;28;20475;-78
2022/09/30 02:11:26;;;;;;;0.20;0.20;;;9.20;99.90;;;;;;5087661;28;20474;-78
2022/09/30 02:14:04;;;;;;;0.20;0.20;;;9.20;99.90;;;;;;5070268;28;20838;-79
2022/09/30 02:16:42;;;;;;;0.20;0.20;;;9.20;99.90;;;;;;5085825;28;20798;-80
2022/09/30 02:19:19;;;;;;;0.20;0.20;;;9.20;99.90;;;;;;5070299;28;20962;-77
2022/09/30 02:21:52;;;;;;;0.20;0.20;;;9.20;99.90;;;;;;5066118;28;20487;-79
2022/09/30 02:24:24;;;;;;;0.20;0.20;;;9.20;99.90;;;;;;5056181;28;20415;-79
2022/09/30 02:26:52;;;;;;;0.20;0.20;;;9.20;99.90;;;;;;5083102;28;20563;-79
2022/09/30 02:29:24;;;;;;;0.20;0.20;;;9.20;99.90;;;;;;5070492;28;20788;-79
2022/09/30 02:31:54;;;;;;;0.20;0.20;;;9.20;99.90;;;;;;5085379;28;20451;-79
2022/09/30 02:34:23;;;;;;;0.20;0.20;;;9.20;99.90;;;;;;5083439;28;20440;-79
2022/09/30 02:37:00;;;;;;;0.20;0.20;;;9.20;99.90;;;;;;5089418;28;21562;-79
2022/09/30 02:39:39;;;;;;;0.20;0.20;;;9.20;99.90;;;;;;5058396;28;20438;-79
2022/09/30 02:42:25;;;;;;;0.20;0.20;;;9.20;99.90;;;;;;5087554;28;20518;-79
2022/09/30 02:44:53;;;;;;;0.20;0.20;;;9.20;99.90;;;;;;5070547;28;20443;-79
2022/09/30 02:47:46;;;;;;;0.20;0.20;;;9.30;99.90;;;;;;5070090;28;20532;-79
2022/09/30 02:50:30;;;;;;;0.20;0.20;;;9.30;99.90;;;;;;5066906;28;20446;-79
2022/09/30 02:53:29;;;;;;;0.20;0.20;;;9.30;99.90;;;;;;5086022;28;20447;-79
2022/09/30 02:56:14;;;;;;;0.20;0.20;;;9.20;99.90;;;;;;5062978;28;20450;-79
2022/09/30 02:58:42;;;;;;;0.20;0.20;;;9.30;99.90;;;;;;5082707;28;20529;-79
2022/09/30 03:01:14;;;;;;;0.20;0.20;;;9.20;99.90;;;;;;5081974;28;20484;-78
2022/09/30 03:03:49;;;;;;;0.20;0.20;;;9.30;99.90;;;;;;5062624;28;20447;-79
2022/09/30 03:06:15;;;;;;;0.20;0.20;;;9.30;99.90;;;;;;5088058;28;20527;-79
2022/09/30 03:08:41;;;;;;;0.20;0.20;;;9.30;99.90;;;;;;5071231;28;20950;-79
2022/09/30 03:11:10;;;;;;;0.20;0.20;;;9.20;99.90;;;;;;5084611;28;20439;-79
2022/09/30 03:13:57;;;;;;;0.20;0.20;;;9.30;99.90;;;;;;5065388;28;20228;-79
2022/09/30 03:16:57;;;;;;;0.20;0.20;;;9.20;99.90;;;;;;5065846;28;20479;-79
2022/09/30 03:19:43;;;;;;;0.20;0.20;;;9.20;99.90;;;;;;5075461;28;20812;-79
2022/09/30 03:22:29;;;;;;;0.20;0.20;;;9.30;99.90;;;;;;5070301;28;20904;-79
2022/09/30 03:25:23;;;;;;;0.20;0.20;;;9.30;99.90;;;;;;5088081;28;20442;-80
2022/09/30 03:28:23;;;;;;;0.20;0.20;;;9.30;99.90;;;;;;5088809;28;20443;-79
2022/09/30 03:31:20;;;;;;;0.20;0.20;;;9.20;99.90;;;;;;5057597;28;20840;-79
2022/09/30 03:33:58;;;;;;;0.20;0.20;;;9.20;99.90;;;;;;5079962;28;20443;-79
2022/09/30 03:36:41;;;;;;;0.20;0.20;;;9.20;99.90;;;;;;5087959;28;20579;-79
2022/09/30 03:39:17;;;;;;;0.20;0.20;;;9.20;99.90;;;;;;5087924;28;20452;-79
2022/09/30 03:41:51;;;;;;;0.20;0.20;;;9.20;99.90;;;;;;5059193;28;20479;-79
2022/09/30 03:44:24;;;;;;;0.20;0.20;;;9.20;99.90;;;;;;5086337;28;20507;-79
2022/09/30 03:46:55;;;;;;;0.20;0.20;;;9.20;99.90;;;;;;5068339;28;20442;-79
2022/09/30 03:49:28;;;;;;;0.20;0.20;;;9.20;99.90;;;;;;5069964;28;20498;-79
2022/09/30 03:51:55;;;;;;;0.20;0.20;;;9.20;99.90;;;;;;5072654;28;20523;-79
2022/09/30 03:54:21;;;;;;;0.20;0.20;;;9.20;99.90;;;;;;5085032;28;20475;-79
2022/09/30 03:56:47;;;;;;;0.20;0.20;;;9.20;99.90;;;;;;5088600;28;20423;-78
2022/09/30 03:59:23;;;;;;;0.20;0.20;;;9.20;99.90;;;;;;5087331;28;20439;-79
2022/09/30 04:01:48;;;;;;;0.20;0.20;;;9.20;99.90;;;;;;5070178;28;20219;-79
2022/09/30 04:04:14;;;;;;;0.20;0.20;;;9.20;99.90;;;;;;5066446;28;20447;-79
2022/09/30 04:06:39;;;;;;;0.20;0.20;;;9.20;99.90;;;;;;5067373;28;20198;-79
2022/09/30 04:09:05;;;;;;;0.20;0.20;;;9.20;99.90;;;;;;5070488;28;20656;-79
2022/09/30 04:11:30;;;;;;;0.20;0.20;;;9.20;99.90;;;;;;5084773;28;20238;-79
2022/09/30 04:13:56;;;;;;;0.20;0.20;;;9.20;99.90;;;;;;5090053;28;20998;-79
2022/09/30 04:16:22;;;;;;;0.20;0.20;;;9.20;99.90;;;;;;5091800;28;20185;-79
2022/09/30 04:18:47;;;;;;;0.20;0.20;;;9.20;99.90;;;;;;5090631;28;20699;-79
2022/09/30 04:21:13;;;;;;;0.20;0.20;;;9.20;99.90;;;;;;5086661;28;20255;-79
2022/09/30 04:23:40;;;;;;;0.20;0.20;;;9.20;99.90;;;;;;5073461;28;20181;-79
2022/09/30 04:26:09;;;;;;;0.20;0.20;;;9.20;99.90;;;;;;5091112;28;20491;-79
2022/09/30 04:28:34;;;;;;;0.20;0.20;;;9.20;99.90;;;;;;5060947;28;20514;-79
2022/09/30 04:31:01;;;;;;;0.20;0.20;;;9.20;99.90;;;;;;5087605;28;20542;-79
2022/09/30 04:33:27;;;;;;;0.20;0.20;;;9.20;99.90;;;;;;5066390;28;20190;-79
2022/09/30 04:35:58;;;;;;;0.20;0.20;;;9.20;99.90;;;;;;5059457;28;20439;-79
2022/09/30 04:38:25;;;;;;;0.20;0.20;;;9.20;99.90;;;;;;5055258;28;20942;-79
2022/09/30 04:40:53;;;;;;;0.20;0.20;;;9.20;99.90;;;;;;5084485;28;20478;-79
2022/09/30 04:43:21;;;;;;;0.20;0.20;;;9.30;99.90;;;;;;5073005;28;20576;-79
2022/09/30 04:45:47;;;;;;;0.20;0.20;;;9.20;99.90;;;;;;5085331;28;20481;-79
2022/09/30 04:48:13;;;;;;;0.20;0.20;;;9.30;99.90;;;;;;5079055;28;20443;-78
2022/09/30 04:50:40;;;;;;;0.20;0.20;;;9.30;99.90;;;;;;5063017;28;20775;-79
2022/09/30 04:53:11;;;;;;;0.20;0.20;;;9.30;99.90;;;;;;5076710;28;20958;-79
2022/09/30 04:55:36;;;;;;;0.20;0.20;;;9.30;99.90;;;;;;5085715;28;20977;-79
2022/09/30 04:58:02;;;;;;;0.20;0.20;;;9.30;99.90;;;;;;5085884;28;20435;-79
2022/09/30 05:00:27;;;;;;;0.20;0.20;;;9.30;99.90;;;;;;5057105;28;20204;-80
2022/09/30 05:02:53;;;;;;;0.20;0.20;;;9.30;99.90;;;;;;5083128;28;20192;-79
2022/09/30 05:05:18;;;;;;;0.20;0.20;;;9.30;99.90;;;;;;5085942;28;20185;-80
2022/09/30 05:07:44;;;;;;;0.20;0.20;;;9.30;99.90;;;;;;5071326;28;20186;-79
2022/09/30 05:10:10;;;;;;;0.20;0.20;;;9.30;99.90;;;;;;5088539;28;20242;-80
2022/09/30 05:12:37;;;;;;;0.20;0.20;;;9.30;99.90;;;;;;5091237;28;20215;-80
2022/09/30 05:15:04;;;;;;;0.20;0.20;;;9.30;99.90;;;;;;5070754;28;20943;-80
2022/09/30 05:17:30;;;;;;;0.20;0.20;;;9.30;99.90;;;;;;5090752;28;20507;-80
2022/09/30 05:19:56;;;;;;;0.20;0.20;;;9.30;99.90;;;;;;5066665;28;20439;-80
2022/09/30 05:22:23;;;;;;;0.20;0.20;;;9.30;99.90;;;;;;5084465;28;20790;-79
2022/09/30 05:24:50;;;;;;;0.20;0.20;;;9.30;99.90;;;;;;5084072;28;20431;-79
2022/09/30 05:27:16;;;;;;;0.20;0.20;;;9.30;99.90;;;;;;5088555;28;20451;-79
2022/09/30 05:29:42;;;;;;;0.20;0.20;;;9.30;99.90;;;;;;5090244;28;21079;-79
2022/09/30 05:32:08;;;;;;;0.20;0.20;;;9.30;99.90;;;;;;5078833;28;20527;-79
2022/09/30 05:34:33;;;;;;;0.20;0.20;;;9.30;99.90;;;;;;5076659;28;20189;-78
2022/09/30 05:36:59;;;;;;;0.20;0.20;;;9.30;99.90;;;;;;5069203;28;20192;-77
2022/09/30 05:39:24;;;;;;;0.20;0.20;;;9.30;99.90;;;;;;5072209;28;20551;-77
2022/09/30 05:41:50;;;;;;;0.20;0.20;;;9.30;99.90;;;;;;5073963;28;20224;-78
2022/09/30 05:44:15;;;;;;;0.20;0.20;;;9.20;99.90;;;;;;5087597;28;20195;-78
2022/09/30 05:46:42;;;;;;;0.20;0.20;;;9.20;99.90;;;;;;5068843;28;20189;-79
2022/09/30 05:49:07;;;;;;;0.20;0.20;;;9.20;99.90;;;;;;5070704;28;20674;-79
2022/09/30 05:51:33;;;;;;;0.20;0.20;;;9.20;99.90;;;;;;5091003;28;20443;-80
2022/09/30 05:53:58;;;;;;;0.20;0.20;;;9.20;99.90;;;;;;5077806;28;20188;-79
2022/09/30 05:56:24;;;;;;;0.20;0.20;;;9.20;99.90;;;;;;5069068;28;20185;-79
2022/09/30 05:58:50;;;;;;;0.20;0.20;;;9.30;99.90;;;;;;5095571;28;20215;-78
2022/09/30 06:01:16;;;;;;;0.20;0.20;;;9.30;99.90;;;;;;5092827;28;20270;-78
2022/09/30 06:03:45;;;;;;;0.20;0.20;;;9.30;99.90;;;;;;5073481;28;20199;-78
2022/09/30 06:06:12;;;;;;;0.20;0.20;;;9.30;99.90;;;;;;5085390;28;20203;-79
2022/09/30 06:08:39;;;;;;;0.20;0.20;;;9.20;99.90;;;;;;5073593;28;20459;-79
2022/09/30 06:11:13;;;;;;;0.20;0.20;;;9.20;99.90;;;;;;5072618;28;20443;-79
2022/09/30 06:13:40;;;;;;;0.20;0.20;;;9.30;99.90;;;;;;5090863;28;20453;-79
2022/09/30 06:16:08;;;;;;;0.20;0.20;;;9.20;99.90;;;;;;5082581;28;20954;-78
2022/09/30 06:18:33;;;;;;;0.20;0.20;;;9.30;99.90;;;;;;5074075;28;20431;-78
2022/09/30 06:21:01;;;;;;;0.20;0.20;;;9.30;99.90;;;;;;5089944;28;20467;-78
2022/09/30 06:23:27;;;;;;;0.20;0.20;;;9.30;99.90;;;;;;5089727;28;20209;-80
2022/09/30 06:25:54;;;;;;;0.13;0.13;;;9.30;99.90;;;;;;5068486;28;20431;-78
2022/09/30 06:28:20;;;;;;;0.20;0.20;;;9.30;99.90;;;;;;5070053;28;20427;-77
2022/09/30 06:30:47;;;;;;;0.20;0.20;;;9.40;99.90;;;;;;5082662;28;20966;-78
2022/09/30 06:33:13;;;;;;;0.20;0.20;;;9.40;99.90;;;;;;5088389;28;20467;-79
2022/09/30 06:35:42;;;;;;;0.20;0.20;;;9.50;99.90;;;;;;5087975;28;20922;-76
2022/09/30 06:38:09;;;;;;;0.20;0.20;;;9.50;99.90;;;;;;5083439;28;20427;-79
2022/09/30 06:40:34;;;;;;;0.20;0.20;;;9.50;99.90;;;;;;5083744;28;20490;-79
2022/09/30 06:43:01;;;;;;;0.20;0.20;;;9.50;99.90;;;;;;5087269;28;20958;-77
2022/09/30 06:45:28;;;;;;;0.20;0.20;;;9.50;99.90;;;;;;5087818;28;20187;-78
2022/09/30 06:47:57;;;;;;;0.20;0.20;;;9.50;99.90;;;;;;5083598;28;20541;-78
2022/09/30 06:50:23;;;;;;;0.20;0.20;;;9.50;99.90;;;;;;5085731;28;20443;-79
2022/09/30 06:52:50;;;;;;;0.20;0.20;;;9.50;99.90;;;;;;5067821;28;20470;-77
2022/09/30 06:55:16;;;;;;;0.20;0.20;;;9.50;99.90;;;;;;5081232;28;20205;-79
2022/09/30 06:57:42;;;;;;;0.20;0.20;;;9.50;99.90;;;;;;5058810;28;20504;-76
2022/09/30 07:00:08;;;;;;;0.20;0.20;;;9.50;99.90;;;;;;5071475;28;20492;-77
2022/09/30 07:02:34;;;;;;;0.20;0.20;;;9.60;99.90;;;;;;5050894;28;20458;-77
2022/09/30 07:05:03;;;;;;;0.20;0.20;;;9.60;99.90;;;;;;5074600;28;20427;-76
2022/09/30 07:07:30;;;;;;;0.10;0.10;;;9.60;99.90;;;;;;5085356;28;20521;-78
2022/09/30 07:09:56;;;;;;;0.20;0.20;;;9.70;99.90;;;;;;5084716;28;20438;-76
2022/09/30 07:12:21;;;;;;;0.20;0.20;;;9.70;99.90;;;;;;5085149;28;20442;-76
2022/09/30 07:14:47;;;;;;;0.20;0.20;;;9.70;99.90;;;;;;5070811;28;20748;-76
2022/09/30 07:17:12;;;;;;;0.20;0.20;;;9.70;99.90;;;;;;5067176;28;20166;-77
2022/09/30 07:19:38;;;;;;;0.20;0.20;;;9.80;99.90;;;;;;5067013;28;20265;-79
2022/09/30 07:24:47;;;;;;;0.20;0.20;;;9.80;99.90;;;;;;5089218;28;20211;-80
2022/09/30 07:27:13;;;;;;;0.20;0.20;;;9.90;99.90;;;;;;5067573;28;20946;-77
2022/09/30 07:29:40;;;;;;;0.20;0.20;;;9.90;99.90;;;;;;5064199;28;20603;-77
2022/09/30 07:32:06;;;;;;;0.20;0.20;;;9.90;99.90;;;;;;5067101;28;20188;-77
2022/09/30 07:34:32;;;;;;;0.20;0.20;;;9.90;99.90;;;;;;5085389;28;20461;-77
2022/09/30 07:36:57;;;;;;;0.20;0.20;;;9.90;99.90;;;;;;5069027;28;20962;-79
2022/09/30 07:39:23;;;;;;;0.20;0.20;;;10.00;99.90;;;;;;5086621;28;20186;-79
2022/09/30 07:41:49;;;;;;;0.20;0.20;;;10.00;99.90;;;;;;5085904;28;20209;-77
2022/09/30 07:44:15;;;;;;;0.20;0.20;;;10.00;99.90;;;;;;5094650;28;20445;-80
2022/09/30 07:46:42;;;;;;;0.20;0.20;;;10.10;99.90;;;;;;5083364;28;20196;-77
2022/09/30 07:49:14;;;;;;;0.20;0.20;;;10.10;99.90;;;;;;5072244;28;20623;-77
2022/09/30 07:51:44;;;;;;;0.20;0.20;;;10.20;99.90;;;;;;5102473;28;20444;-77
2022/09/30 07:54:13;;;;;;;0.20;0.20;;;10.20;99.90;;;;;;5094499;28;20453;-79
2022/09/30 07:56:40;;;;;;;0.20;0.20;;;10.20;99.90;;;;;;5088858;28;20851;-79
2022/09/30 07:59:06;;;;;;;0.20;0.20;;;10.10;99.90;;;;;;5081943;28;20508;-80
2022/09/30 08:01:33;;;;;;;0.20;0.20;;;10.20;99.90;;;;;;5069173;28;20979;-78
2022/09/30 08:04:02;;;;;;;0.20;0.20;;;10.20;99.90;;;;;;5072688;28;20567;-78
2022/09/30 08:06:30;;;;;;;0.20;0.20;;;10.20;99.90;;;;;;5083972;28;20947;-79
2022/09/30 08:08:56;;;;;;;0.20;0.20;;;10.10;99.90;;;;;;5081941;28;20466;-79
2022/09/30 08:11:24;;;;;;;0.20;0.20;;;10.20;99.90;;;;;;5076581;28;20439;-78
2022/09/30 08:13:54;;;;;;;0.20;0.20;;;10.20;99.90;;;;;;5090160;28;21005;-78
2022/09/30 08:16:21;;;;;;;0.20;0.20;;;10.30;99.90;;;;;;5080170;28;20455;-78
2022/09/30 08:18:47;;;;;;;0.20;0.20;;;10.30;99.90;;;;;;5091386;28;20900;-79
2022/09/30 08:21:13;;;;;;;0.20;0.20;;;10.30;99.90;;;;;;5085199;28;20474;-78
2022/09/30 08:23:40;;;;;;;0.20;0.20;;;10.40;99.90;;;;;;5073860;28;20864;-77
2022/09/30 08:26:08;;;;;;;0.20;0.20;;;10.50;99.90;;;;;;5091830;28;20474;-79
2022/09/30 08:28:34;;;;;;;0.20;0.20;;;10.50;99.90;;;;;;5091865;28;20439;-79
2022/09/30 08:31:09;;;;;;;0.20;0.20;;;10.60;99.90;;;;;;5072489;28;20450;-79
2022/09/30 08:33:35;;;;;;;0.20;0.20;;;10.70;99.90;;;;;;5083267;28;20439;-78
2022/09/30 08:36:06;;;;;;;0.10;0.10;;;10.70;99.90;;;;;;5091555;28;21040;-78
2022/09/30 08:38:33;;;;;;;0.20;0.20;;;10.70;99.90;;;;;;5077916;28;20474;-77
2022/09/30 08:41:21;;;;;;;0.20;0.20;;;10.70;99.90;;;;;;5098126;28;20996;-78
2022/09/30 08:44:24;;;;;;;0.20;0.20;;;10.70;99.90;;;;;;5087767;28;20442;-79
2022/09/30 08:47:01;;;;;;;0.20;0.20;;;10.80;99.90;;;;;;5095439;28;20454;-77
2022/09/30 08:49:35;;;;;;;0.10;0.10;;;10.70;99.90;;;;;;5086788;28;20488;-79
2022/09/30 08:52:04;;;;;;;0.20;0.20;;;10.70;99.90;;;;;;5074622;28;20530;-78
2022/09/30 08:54:33;;;;;;;0.10;0.10;;;10.80;99.90;;;;;;5072346;28;20455;-80
2022/09/30 08:57:02;;;;;;;0.13;0.13;;;10.80;99.90;;;;;;5070235;28;20959;-79
2022/09/30 08:59:43;;;;;;;0.20;0.20;;;10.70;99.90;;;;;;5081386;28;20534;-79
2022/09/30 09:02:29;;;;;;;0.20;0.20;;;10.80;99.90;;;;;;5087309;28;20475;-78
2022/09/30 09:05:01;;;;;;;0.10;0.10;;;10.80;99.90;;;;;;5089102;28;20449;-77
2022/09/30 09:07:48;;;;;;;0.20;0.20;;;10.80;99.90;;;;;;5067214;28;20542;-79
2022/09/30 09:10:30;;;;;;;0.20;0.20;;;10.80;99.90;;;;;;5089269;28;20438;-77
2022/09/30 09:13:18;;;;;;;0.20;0.20;;;10.70;99.90;;;;;;5087055;28;20453;-80
2022/09/30 09:16:02;;;;;;;0.20;0.20;;;10.80;99.90;;;;;;5073250;28;20454;-80
2022/09/30 09:19:05;;;;;;;0.20;0.20;;;10.80;99.90;;;;;;5089074;28;20435;-77
2022/09/30 09:21:47;;;;;;;0.20;0.20;;;10.80;99.90;;;;;;5035831;28;20491;-78
2022/09/30 09:24:29;;;;;;;0.20;0.20;;;10.90;99.90;;;;;;5081122;28;20435;-78
2022/09/30 09:26:57;;;;;;;0.20;0.20;;;10.90;99.90;;;;;;5087479;28;20864;-79
2022/09/30 09:29:42;;;;;;;0.20;0.20;;;11.00;99.90;;;;;;5089485;28;20435;-80
2022/09/30 09:32:16;;;;;;;0.10;0.10;;;11.10;99.90;;;;;;5084761;28;20447;-79
2022/09/30 09:34:42;;;;;;;0.10;0.10;;;11.20;99.90;;;;;;5088278;28;20480;-79
2022/09/30 09:37:21;;;;;;;0.10;0.10;;;11.30;99.90;;;;;;5069910;28;20450;-79
2022/09/30 09:40:07;;;;;;;0.20;0.20;;;11.40;99.90;;;;;;5091423;28;20921;-77
2022/09/30 09:42:48;;;;;;;0.10;0.10;;;11.40;99.90;;;;;;5087074;28;20604;-78
2022/09/30 09:45:27;;;;;;;0.10;0.10;;;11.60;99.90;;;;;;5084648;28;20545;-79
2022/09/30 09:47:56;;;;;;;0.10;0.10;;;11.50;99.90;;;;;;5084433;28;20509;-77
2022/09/30 09:50:46;;;;;;;0.20;0.20;;;11.40;99.90;;;;;;5083555;28;20446;-80
2022/09/30 09:53:23;;;;;;;0.10;0.10;;;11.40;99.90;;;;;;5079274;28;20472;-79
2022/09/30 09:55:53;;;;;;;0.10;0.10;;;11.50;99.90;;;;;;5074070;28;20450;-77
2022/09/30 09:58:20;;;;;;;0.20;0.20;;;11.70;99.90;;;;;;5069209;28;20451;-79
2022/09/30 10:03:17;;;;;;;0.10;0.10;;;12.00;99.90;;;;;;5087135;28;20451;-79
2022/09/30 10:05:46;;;;;;;0.10;0.10;;;11.90;99.90;;;;;;5072976;28;20185;-77
2022/09/30 10:08:18;;;;;;;0.10;0.10;;;11.80;99.90;;;;;;5068791;28;20439;-79
2022/09/30 10:10:47;;;;;;;0.10;0.10;;;11.70;99.90;;;;;;5088218;28;20447;-80
2022/09/30 10:13:24;;;;;;;0.10;0.10;;;11.70;99.90;;;;;;5086381;28;21021;-78
2022/09/30 10:15:55;;;;;;;0.10;0.10;;;11.80;99.90;;;;;;5084002;28;20447;-79
2022/09/30 10:18:28;;;;;;;0.10;0.10;;;11.80;99.90;;;;;;5089632;28;20443;-79
2022/09/30 10:21:21;;;;;;;0.20;0.20;;;12.20;99.90;;;;;;5090369;28;20475;-79
2022/09/30 10:23:47;;;;;;;0.10;0.10;;;12.50;99.90;;;;;;5080321;28;21254;-79
2022/09/30 10:26:13;;;;;;;0.10;0.10;;;13.00;99.90;;;;;;5079797;28;20559;-78
2022/09/30 10:28:49;;;;;;;0.10;0.10;;;13.50;99.90;;;;;;5084259;28;20546;-79
2022/09/30 10:31:20;;;;;;;0.10;0.10;;;13.80;99.90;;;;;;5063679;28;20184;-79
2022/09/30 10:33:52;;;;;;;0.10;0.10;;;13.90;99.90;;;;;;5087691;28;20491;-80
2022/09/30 10:36:20;;;;;;;0.10;0.10;;;14.10;99.90;;;;;;5079253;28;20478;-80
2022/09/30 10:38:55;;;;;;;0.10;0.10;;;13.90;99.90;;;;;;5066743;28;20450;-78
2022/09/30 10:41:24;;;;;;;0.10;0.10;;;13.70;99.90;;;;;;5092175;28;20478;-80
2022/09/30 10:43:53;;;;;;;0.10;0.10;;;13.30;99.90;;;;;;5084961;28;20439;-80
2022/09/30 10:46:37;;;;;;;0.10;0.10;;;13.00;99.90;;;;;;5082451;28;20480;-80
2022/09/30 10:49:10;;;;;;;0.10;0.10;;;13.00;99.90;;;;;;5088505;28;20518;-80
2022/09/30 10:51:37;;;;;;;0.10;0.10;;;13.20;99.90;;;;;;5087514;28;20443;-80
2022/09/30 10:54:05;;;;;;;0.10;0.10;;;13.80;99.90;;;;;;5070632;28;20832;-82
2022/09/30 10:56:40;;;;;;;0.10;0.10;;;15.20;99.90;;;;;;5084005;28;20538;-82
2022/09/30 10:59:20;;;;;;;0.10;0.10;;;15.00;99.90;;;;;;5087142;28;20446;-81
2022/09/30 11:01:50;;;;;;;0.10;0.10;;;14.70;99.90;;;;;;5064291;28;20835;-82
2022/09/30 11:04:30;;;;;;;0.10;0.10;;;15.00;99.90;;;;;;5094358;28;20446;-82
2022/09/30 11:07:11;;;;;;;0.10;0.10;;;15.60;99.90;;;;;;5084865;28;20561;-82
2022/09/30 11:09:50;;;;;;;0.10;0.10;;;16.80;99.90;;;;;;5079748;28;20465;-82
2022/09/30 11:12:36;;;;;;;0.10;0.10;;;16.70;99.90;;;;;;5081588;28;20461;-82
2022/09/30 11:15:16;;;;;;;0.10;0.10;;;16.40;99.90;;;;;;5084256;28;21068;-82
2022/09/30 11:17:58;;;;;;;0.10;0.10;;;17.20;99.90;;;;;;5080984;28;20516;-84
2022/09/30 11:20:44;;;;;;;0.10;0.00;;;17.80;99.90;;;;;;5086974;28;20492;-83
2022/09/30 11:23:22;;;;;;;0.10;0.00;;;18.70;99.90;;;;;;5086287;28;20447;-82
2022/09/30 11:26:00;;;;;;;0.10;0.00;;;19.20;99.90;;;;;;5082785;28;20439;-83
2022/09/30 11:28:47;;;;;;;0.10;0.00;;;18.80;99.90;;;;;;5083224;28;20442;-83
2022/09/30 11:31:20;;;;;;;0.10;0.00;;;18.30;99.90;;;;;;5086679;28;20450;-83
2022/09/30 11:33:59;;;;;;;0.10;0.10;;;16.90;99.90;;;;;;5087954;28;20443;-82
2022/09/30 11:36:40;;;;;;;0.10;0.10;;;16.20;99.90;;;;;;5071657;28;20500;-83
2022/09/30 11:39:30;;;;;;;0.00;0.00;;;17.10;99.90;;;;;;5086426;28;20435;-82
2022/09/30 11:42:34;;;;;;;0.00;0.00;;;17.50;99.90;;;;;;5103599;28;20481;-83
2022/09/30 11:45:30;;;;;;;0.03;0.03;;;16.90;99.90;;;;;;5098095;28;20487;-82
2022/09/30 11:48:11;;;;;;;0.00;0.00;;;18.60;99.90;;;;;;5081493;28;20503;-83
2022/09/30 11:50:46;;;;;;;0.00;0.00;;;20.00;99.90;;;;;;5087364;28;20470;-84
2022/09/30 11:53:26;;;;;;;0.00;0.00;;;21.20;99.90;;;;;;5084142;28;20448;-83
2022/09/30 11:56:04;;;;;;;0.00;0.00;;;20.90;99.90;;;;;;5083156;28;20450;-83
2022/09/30 11:58:40;;;;;;;0.00;0.00;;;21.30;99.90;;;;;;5085318;28;20431;-83
2022/09/30 12:01:36;;;;;;;0.00;0.00;;;19.90;99.90;;;;;;5084237;28;21359;-83
2022/09/30 12:04:11;;;;;;;0.00;0.00;;;19.90;99.90;;;;;;5088994;28;20512;-83
2022/09/30 12:06:42;;;;;;;0.00;0.00;;;19.20;99.90;;;;;;5080470;28;20493;-83
2022/09/30 12:09:15;;;;;;;0.00;0.00;;;18.00;99.90;;;;;;5084145;28;20527;-82
2022/09/30 12:11:53;;;;;;;0.00;0.00;;;17.90;99.90;;;;;;5083610;28;20593;-82
2022/09/30 12:14:25;;;;;;;0.00;0.00;;;19.00;99.90;;;;;;5093788;28;20466;-83
2022/09/30 12:16:50;;;;;;;0.00;0.00;;;18.50;99.90;;;;;;5084835;28;20459;-83
2022/09/30 12:19:23;;;;;;;0.00;0.00;;;17.70;99.90;;;;;;5066831;28;20462;-82
2022/09/30 12:22:00;;;;;;;0.00;0.00;;;17.70;99.90;;;;;;5082720;28;20217;-82
2022/09/30 12:24:35;;;;;;;0.00;0.00;;;17.80;99.90;;;;;;5086238;28;20473;-83
2022/09/30 12:27:01;;;;;;;0.00;0.00;;;17.30;99.90;;;;;;5062907;28;20442;-83
2022/09/30 12:32:42;;;;;;;0.00;0.00;;;16.40;99.90;;;;;;5085174;28;20547;-82
2022/09/30 12:35:32;;;;;;;0.00;0.00;;;16.10;99.90;;;;;;5089852;28;20954;-83
2022/09/30 12:38:09;;;;;;;0.10;0.10;;;16.00;99.90;;;;;;5088597;28;20439;-83
2022/09/30 12:40:54;;;;;;;0.10;0.10;;;15.50;99.90;;;;;;5091534;28;21076;-80
2022/09/30 12:43:29;;;;;;;0.10;0.10;;;15.30;99.90;;;;;;5090185;28;20431;-80
2022/09/30 12:46:19;;;;;;;0.10;0.10;;;15.20;99.90;;;;;;5085535;28;20778;-82
2022/09/30 12:48:56;;;;;;;0.10;0.10;;;15.10;99.90;;;;;;5090933;28;20864;-82
2022/09/30 12:51:29;;;;;;;0.10;0.10;;;14.90;99.90;;;;;;5063645;28;20458;-82
2022/09/30 12:54:15;;;;;;;0.10;0.10;;;15.00;99.90;;;;;;5070682;28;20467;-81
2022/09/30 12:56:42;;;;;;;0.10;0.10;;;15.00;99.90;;;;;;5089225;28;20454;-81
2022/09/30 12:59:09;;;;;;;0.10;0.10;;;15.00;99.90;;;;;;5063181;28;20431;-82
2022/09/30 13:01:37;;;;;;;0.10;0.10;;;15.00;99.90;;;;;;5087425;28;20475;-82
2022/09/30 13:04:02;;;;;;;0.10;0.10;;;15.00;99.90;;;;;;5091689;28;20528;-82
2022/09/30 13:06:46;;;;;;;0.10;0.10;;;15.00;99.90;;;;;;5089318;28;20497;-82
2022/09/30 13:09:29;;;;;;;0.10;0.10;;;14.90;99.90;;;;;;5085188;28;20201;-82
2022/09/30 13:11:55;;;;;;;0.10;0.10;;;14.80;99.90;;;;;;5085412;28;20447;-81
2022/09/30 13:14:36;;;;;;;0.10;0.10;;;14.70;99.90;;;;;;5066612;28;20574;-82
2022/09/30 13:17:09;;;;;;;0.10;0.10;;;14.70;99.90;;;;;;5066679;28;20231;-82
2022/09/30 13:19:41;;;;;;;0.10;0.10;;;14.70;99.90;;;;;;5070884;28;21015;-82
2022/09/30 13:22:19;;;;;;;0.10;0.10;;;14.70;99.90;;;;;;5085474;28;20474;-81
2022/09/30 13:24:57;;;;;;;0.10;0.10;;;14.70;99.90;;;;;;5084446;28;20466;-82
2022/09/30 13:27:39;;;;;;;0.10;0.10;;;14.80;99.90;;;;;;5087181;28;20574;-80
2022/09/30 13:30:13;;;;;;;0.10;0.10;;;14.80;99.90;;;;;;5087567;28;20559;-80